Time;durP1;ratioP1;P1;durP2;ratioP2;P2;SDS_P1;SDS_P2;PMS_P1;PMS_P2;Temp;Humidity;BMP_temperature;BMP_pressure;BME280_temperature;BME280_humidity;BME280_pressure;Samples;Min_cycle;Max_cycle;Signal;HPM_P1;HPM_P2
2023/10/28 00:01:06;;;;;;;6.50;1.45;;;17.50;63.40;;;;;;5093871;28;20197;-61
2023/10/28 00:03:33;;;;;;;5.05;1.83;;;17.50;63.40;;;;;;5093574;28;20214;-62
2023/10/28 00:06:01;;;;;;;5.40;1.38;;;17.50;63.30;;;;;;5093969;28;20615;-62
2023/10/28 00:08:28;;;;;;;7.68;2.00;;;17.50;63.30;;;;;;5093722;28;20190;-58
2023/10/28 00:10:56;;;;;;;7.68;2.00;;;17.50;63.40;;;;;;5093164;28;20247;-62
2023/10/28 00:13:23;;;;;;;6.15;1.88;;;17.50;63.40;;;;;;5093691;28;20213;-61
2023/10/28 00:15:50;;;;;;;6.28;1.70;;;17.50;63.30;;;;;;5093740;28;20225;-61
2023/10/28 00:18:17;;;;;;;6.50;1.90;;;17.50;63.30;;;;;;5093049;28;20739;-64
2023/10/28 00:20:45;;;;;;;6.50;1.80;;;17.50;63.40;;;;;;5093564;28;20300;-63
2023/10/28 00:23:13;;;;;;;6.00;1.60;;;17.40;63.20;;;;;;5093167;28;20706;-61
2023/10/28 00:25:40;;;;;;;7.72;2.38;;;17.40;63.20;;;;;;5093053;28;20246;-62
2023/10/28 00:28:09;;;;;;;5.72;1.70;;;17.40;63.20;;;;;;5093356;28;20293;-61
2023/10/28 00:30:39;;;;;;;6.70;1.75;;;17.40;63.20;;;;;;5093277;28;20300;-62
2023/10/28 00:33:06;;;;;;;6.43;1.63;;;17.40;63.20;;;;;;5093080;28;20186;-63
2023/10/28 00:35:33;;;;;;;4.32;1.70;;;17.50;63.30;;;;;;5093169;28;20267;-60
2023/10/28 00:38:00;;;;;;;4.15;1.50;;;17.40;63.20;;;;;;5092781;28;20695;-61
2023/10/28 00:40:29;;;;;;;6.95;1.67;;;17.40;63.20;;;;;;5092916;28;20263;-61
2023/10/28 00:42:57;;;;;;;4.55;1.73;;;17.40;63.20;;;;;;5093151;28;20185;-61
2023/10/28 00:45:27;;;;;;;8.82;1.52;;;17.40;63.20;;;;;;5093283;28;20286;-60
2023/10/28 00:47:56;;;;;;;5.45;1.50;;;17.40;63.20;;;;;;5092364;28;20190;-61
2023/10/28 00:50:23;;;;;;;6.30;1.63;;;17.40;63.20;;;;;;5092886;28;20585;-62
2023/10/28 00:52:55;;;;;;;6.50;1.80;;;17.40;63.20;;;;;;5092951;28;20261;-58
2023/10/28 00:55:23;;;;;;;4.65;1.50;;;17.40;63.20;;;;;;5092988;28;20669;-61
2023/10/28 00:57:50;;;;;;;3.65;1.40;;;17.40;63.20;;;;;;5091997;28;20190;-61
2023/10/28 01:00:18;;;;;;;2.50;1.50;;;17.40;63.20;;;;;;5092858;28;20309;-62
2023/10/28 01:02:46;;;;;;;5.93;1.48;;;17.40;63.20;;;;;;5092644;28;20186;-61
2023/10/28 01:05:16;;;;;;;4.55;1.20;;;17.40;63.20;;;;;;5092341;28;20232;-60
2023/10/28 01:07:46;;;;;;;3.75;1.90;;;17.40;63.20;;;;;;5092563;28;20268;-61
2023/10/28 01:10:13;;;;;;;6.60;1.60;;;17.40;63.20;;;;;;5092463;28;20580;-61
2023/10/28 01:12:40;;;;;;;5.38;1.50;;;17.40;64.00;;;;;;5092708;28;20224;-62
2023/10/28 01:15:08;;;;;;;6.25;1.20;;;17.40;63.20;;;;;;5092458;28;20246;-58
2023/10/28 01:17:36;;;;;;;4.95;1.60;;;17.40;63.10;;;;;;5092192;28;20632;-61
2023/10/28 01:20:05;;;;;;;5.05;1.23;;;17.40;63.10;;;;;;5092692;28;20253;-61
2023/10/28 01:22:34;;;;;;;3.70;1.60;;;17.40;63.10;;;;;;5091927;28;20306;-60
2023/10/28 01:25:01;;;;;;;2.90;1.15;;;17.40;63.10;;;;;;5092229;28;20756;-60
2023/10/28 01:27:28;;;;;;;3.05;1.20;;;17.40;63.10;;;;;;5092441;28;20247;-62
2023/10/28 01:29:55;;;;;;;4.05;1.30;;;17.40;63.80;;;;;;5092253;28;20296;-58
2023/10/28 01:32:22;;;;;;;4.72;1.27;;;17.40;63.00;;;;;;5091983;28;20671;-57
2023/10/28 01:34:51;;;;;;;5.53;1.40;;;17.40;62.90;;;;;;5092485;28;20265;-61
2023/10/28 01:37:19;;;;;;;3.10;1.33;;;17.40;62.90;;;;;;5091738;28;20640;-62
2023/10/28 01:39:48;;;;;;;4.28;1.63;;;17.40;62.90;;;;;;5092224;28;20221;-62
2023/10/28 01:42:15;;;;;;;5.43;1.38;;;17.40;63.60;;;;;;5092641;28;20226;-59
2023/10/28 01:44:42;;;;;;;2.60;1.25;;;17.40;62.80;;;;;;5092104;28;20292;-59
2023/10/28 01:47:09;;;;;;;2.75;1.25;;;17.40;62.80;;;;;;5092034;28;20239;-60
2023/10/28 01:49:36;;;;;;;4.30;1.60;;;17.40;62.80;;;;;;5092386;28;20220;-62
2023/10/28 01:52:07;;;;;;;3.67;1.55;;;17.40;62.70;;;;;;5092283;28;20186;-61
2023/10/28 01:54:35;;;;;;;4.80;1.45;;;17.40;62.80;;;;;;5092161;28;20263;-62
2023/10/28 01:57:05;;;;;;;4.72;1.27;;;17.40;62.80;;;;;;5092221;28;20209;-60
2023/10/28 01:59:32;;;;;;;4.05;1.15;;;17.30;62.60;;;;;;5091969;28;20214;-61
2023/10/28 02:02:01;;;;;;;5.93;1.65;;;17.30;62.60;;;;;;5091845;28;20634;-60
2023/10/28 02:04:29;;;;;;;5.38;1.15;;;17.30;62.60;;;;;;5092104;28;20241;-62
2023/10/28 02:06:56;;;;;;;1.85;1.10;;;17.30;62.60;;;;;;5091857;28;20213;-60
2023/10/28 02:09:23;;;;;;;2.78;1.23;;;17.40;62.60;;;;;;5092385;28;21030;-61
2023/10/28 02:11:52;;;;;;;4.57;1.30;;;17.40;62.60;;;;;;5095722;28;20550;-61
2023/10/28 02:14:22;;;;;;;3.63;1.20;;;17.30;62.50;;;;;;5095564;28;20694;-59
2023/10/28 02:16:50;;;;;;;4.43;1.33;;;17.30;62.50;;;;;;5095581;28;20197;-60
2023/10/28 02:19:20;;;;;;;4.15;1.42;;;17.30;62.50;;;;;;5095566;28;20561;-62
2023/10/28 02:21:48;;;;;;;4.53;1.45;;;17.30;62.50;;;;;;5095264;28;20182;-60
2023/10/28 02:24:16;;;;;;;4.50;1.50;;;17.30;62.50;;;;;;5095694;28;20587;-59
2023/10/28 02:26:43;;;;;;;4.82;1.40;;;17.30;62.40;;;;;;5095441;28;20655;-61
2023/10/28 02:29:11;;;;;;;5.65;1.48;;;17.30;62.40;;;;;;5095411;28;20214;-60
2023/10/28 02:31:39;;;;;;;6.20;1.40;;;17.30;62.40;;;;;;5095734;28;20277;-60
2023/10/28 02:34:07;;;;;;;4.57;1.52;;;17.30;62.30;;;;;;5095528;28;20313;-62
2023/10/28 02:36:34;;;;;;;3.88;1.45;;;17.30;62.40;;;;;;5095047;28;20194;-58
2023/10/28 02:39:01;;;;;;;2.65;1.30;;;17.30;62.30;;;;;;5095137;28;20340;-60
2023/10/28 02:41:30;;;;;;;5.28;1.15;;;17.30;62.30;;;;;;5095568;28;20198;-61
2023/10/28 02:43:57;;;;;;;2.78;1.13;;;17.30;62.30;;;;;;5094771;28;20248;-60
2023/10/28 02:46:25;;;;;;;5.57;1.42;;;17.30;62.30;;;;;;5095506;28;20626;-61
2023/10/28 02:48:53;;;;;;;3.85;1.27;;;17.30;62.30;;;;;;5094995;28;20254;-60
2023/10/28 02:51:20;;;;;;;1.85;1.00;;;17.30;62.20;;;;;;5094738;28;20709;-57
2023/10/28 02:53:49;;;;;;;4.90;1.33;;;17.30;62.30;;;;;;5095218;28;20190;-61
2023/10/28 02:56:16;;;;;;;5.28;1.38;;;17.30;63.10;;;;;;5095144;28;20235;-59
2023/10/28 02:58:43;;;;;;;5.20;1.58;;;17.30;62.20;;;;;;5095115;28;20193;-61
2023/10/28 03:01:10;;;;;;;2.42;1.10;;;17.30;62.20;;;;;;5094874;28;20297;-60
2023/10/28 03:03:41;;;;;;;3.85;1.50;;;17.30;62.20;;;;;;5095074;28;20269;-60
2023/10/28 03:06:10;;;;;;;3.58;1.30;;;17.30;62.20;;;;;;5094994;28;20229;-62
2023/10/28 03:08:38;;;;;;;3.45;1.48;;;17.30;62.10;;;;;;5094991;28;20208;-60
2023/10/28 03:11:05;;;;;;;2.22;1.10;;;17.30;62.10;;;;;;5095110;28;20225;-62
2023/10/28 03:13:32;;;;;;;4.95;1.35;;;17.30;62.10;;;;;;5094655;28;20522;-58
2023/10/28 03:15:59;;;;;;;4.47;1.33;;;17.30;62.10;;;;;;5094544;28;20309;-58
2023/10/28 03:18:26;;;;;;;5.18;1.30;;;17.30;62.10;;;;;;5094491;28;20277;-62
2023/10/28 03:20:55;;;;;;;6.18;1.60;;;17.30;62.10;;;;;;5093461;28;20316;-59
2023/10/28 03:23:24;;;;;;;5.00;1.40;;;17.30;62.00;;;;;;5094577;28;20182;-59
2023/10/28 03:25:51;;;;;;;4.55;1.60;;;17.30;62.10;;;;;;5094400;28;20805;-62
2023/10/28 03:28:18;;;;;;;4.50;1.52;;;17.30;62.10;;;;;;5094514;28;20260;-59
2023/10/28 03:30:45;;;;;;;4.93;1.35;;;17.30;62.00;;;;;;5094600;28;20217;-60
2023/10/28 03:33:12;;;;;;;4.15;1.60;;;17.30;62.10;;;;;;5094444;28;20271;-61
2023/10/28 03:35:39;;;;;;;4.93;1.83;;;17.30;62.00;;;;;;5094555;28;20213;-58
2023/10/28 03:38:06;;;;;;;5.38;1.60;;;17.30;62.00;;;;;;5094017;28;20226;-61
2023/10/28 03:40:35;;;;;;;3.17;1.45;;;17.30;62.00;;;;;;5094382;28;20306;-60
2023/10/28 03:43:02;;;;;;;5.85;1.63;;;17.30;62.00;;;;;;5094046;28;20225;-60
2023/10/28 03:45:29;;;;;;;4.93;1.35;;;17.30;62.00;;;;;;5093817;28;20241;-61
2023/10/28 03:47:56;;;;;;;7.85;2.72;;;17.30;62.00;;;;;;5094173;28;20637;-57
2023/10/28 03:50:23;;;;;;;5.30;1.70;;;17.30;62.00;;;;;;5094327;28;20213;-60
2023/10/28 03:52:50;;;;;;;9.30;1.70;;;17.30;62.00;;;;;;5093789;28;20213;-62
2023/10/28 03:55:17;;;;;;;5.05;1.60;;;17.30;62.00;;;;;;5094174;28;20309;-61
2023/10/28 03:57:45;;;;;;;5.30;1.42;;;17.20;61.80;;;;;;5093979;28;20265;-62
2023/10/28 04:00:13;;;;;;;7.30;1.90;;;17.20;61.80;;;;;;5093717;28;20218;-58
2023/10/28 04:02:40;;;;;;;4.97;1.70;;;17.20;61.90;;;;;;5093979;28;20200;-62
2023/10/28 04:05:07;;;;;;;6.38;1.70;;;17.20;61.80;;;;;;5093910;28;20249;-61
2023/10/28 04:07:34;;;;;;;6.28;2.00;;;17.20;61.80;;;;;;5093243;28;20671;-59
2023/10/28 04:10:07;;;;;;;5.35;1.70;;;17.20;61.80;;;;;;5093720;28;20218;-60
2023/10/28 04:12:35;;;;;;;6.38;2.00;;;17.20;62.70;;;;;;5093392;28;20656;-61
2023/10/28 04:15:04;;;;;;;7.43;1.83;;;17.20;61.80;;;;;;5093343;28;20214;-62
2023/10/28 04:17:31;;;;;;;7.75;1.80;;;17.20;61.80;;;;;;5093561;28;20186;-64
2023/10/28 04:19:59;;;;;;;5.97;2.28;;;17.20;61.80;;;;;;5093654;28;20304;-61
2023/10/28 04:22:28;;;;;;;4.50;1.48;;;17.20;61.80;;;;;;5093268;28;20197;-60
2023/10/28 04:24:56;;;;;;;5.88;1.98;;;17.20;61.80;;;;;;5093480;28;20245;-62
2023/10/28 04:27:23;;;;;;;10.38;2.10;;;17.30;61.90;;;;;;5093133;28;20667;-61
2023/10/28 04:29:51;;;;;;;7.63;2.00;;;17.20;61.80;;;;;;5092764;28;20249;-60
2023/10/28 04:32:22;;;;;;;7.88;2.10;;;17.20;61.80;;;;;;5093081;28;20186;-60
2023/10/28 04:34:50;;;;;;;6.03;2.00;;;17.20;61.80;;;;;;5093287;28;20218;-60
2023/10/28 04:37:17;;;;;;;7.97;2.15;;;17.20;61.80;;;;;;5092854;28;20197;-59
2023/10/28 04:39:44;;;;;;;12.15;3.15;;;17.20;61.80;;;;;;5093268;28;20245;-62
2023/10/28 04:42:11;;;;;;;7.40;2.22;;;17.20;61.80;;;;;;5093456;28;20198;-60
2023/10/28 04:44:38;;;;;;;7.30;2.03;;;17.20;61.80;;;;;;5092390;28;20320;-62
2023/10/28 04:47:06;;;;;;;7.80;2.25;;;17.20;61.70;;;;;;5093035;28;20196;-59
2023/10/28 04:49:34;;;;;;;5.28;1.95;;;17.20;61.80;;;;;;5092989;28;20301;-62
2023/10/28 04:52:01;;;;;;;6.72;2.20;;;17.20;61.80;;;;;;5092702;28;20189;-60
2023/10/28 04:54:28;;;;;;;7.43;2.40;;;17.20;61.70;;;;;;5092669;28;20746;-60
2023/10/28 04:56:55;;;;;;;8.25;2.45;;;17.30;61.80;;;;;;5092961;28;20186;-60
2023/10/28 04:59:22;;;;;;;7.70;2.10;;;17.20;61.70;;;;;;5092509;28;20185;-60
2023/10/28 05:01:50;;;;;;;7.72;2.10;;;17.20;61.70;;;;;;5092854;28;20197;-58
2023/10/28 05:04:18;;;;;;;8.27;1.80;;;17.20;61.70;;;;;;5092419;28;20190;-61
2023/10/28 05:06:46;;;;;;;9.80;2.42;;;17.20;61.70;;;;;;5092314;28;20217;-60
2023/10/28 05:09:15;;;;;;;7.80;2.08;;;17.20;61.70;;;;;;5092367;28;20713;-61
2023/10/28 05:11:43;;;;;;;8.57;2.53;;;17.20;61.70;;;;;;5092795;28;20190;-62
2023/10/28 05:14:11;;;;;;;12.10;2.10;;;17.20;61.70;;;;;;5092325;28;20186;-61
2023/10/28 05:16:38;;;;;;;8.57;2.00;;;17.20;61.70;;;;;;5092647;28;20217;-62
2023/10/28 05:19:05;;;;;;;7.32;1.75;;;17.20;61.70;;;;;;5092241;28;20190;-58
2023/10/28 05:21:32;;;;;;;9.85;2.78;;;17.20;61.70;;;;;;5092497;28;20222;-61
2023/10/28 05:24:00;;;;;;;11.27;2.08;;;17.20;61.70;;;;;;5092218;28;20663;-61
2023/10/28 05:26:27;;;;;;;6.80;2.00;;;17.20;61.70;;;;;;5092381;28;20556;-60
2023/10/28 05:28:54;;;;;;;14.93;2.50;;;17.20;61.70;;;;;;5092154;28;20273;-62
2023/10/28 05:31:21;;;;;;;6.47;2.10;;;17.20;61.70;;;;;;5092633;28;20233;-61
2023/10/28 05:33:48;;;;;;;7.70;2.10;;;17.20;61.70;;;;;;5092454;28;20281;-60
2023/10/28 05:36:16;;;;;;;7.28;2.08;;;17.20;61.70;;;;;;5091836;28;20713;-59
2023/10/28 05:38:43;;;;;;;13.07;2.65;;;17.20;61.60;;;;;;5092023;28;20225;-60
2023/10/28 05:41:11;;;;;;;5.70;2.00;;;17.20;61.60;;;;;;5092023;28;20304;-59
2023/10/28 05:43:38;;;;;;;8.82;2.30;;;17.20;61.60;;;;;;5091792;28;20596;-63
2023/10/28 05:46:05;;;;;;;10.85;2.80;;;17.20;61.60;;;;;;5096207;28;20657;-62
2023/10/28 05:48:33;;;;;;;6.82;2.28;;;17.20;61.60;;;;;;5096489;28;20186;-61
2023/10/28 05:51:02;;;;;;;8.48;2.53;;;17.20;62.50;;;;;;5096085;28;20224;-62
2023/10/28 05:53:29;;;;;;;9.43;2.38;;;17.20;61.60;;;;;;5096441;28;20273;-59
2023/10/28 05:55:57;;;;;;;7.40;2.20;;;17.20;61.60;;;;;;5096574;28;20217;-61
2023/10/28 05:58:26;;;;;;;11.13;2.78;;;17.20;61.70;;;;;;5096097;28;20190;-62
2023/10/28 06:00:54;;;;;;;10.57;2.95;;;17.20;61.60;;;;;;5096136;28;20216;-63
2023/10/28 06:03:21;;;;;;;11.85;2.45;;;17.20;61.70;;;;;;5096242;28;20190;-62
2023/10/28 06:05:48;;;;;;;6.15;2.70;;;17.20;61.60;;;;;;5095947;28;20239;-62
2023/10/28 06:08:15;;;;;;;13.25;3.00;;;17.20;61.60;;;;;;5096207;28;20213;-60
2023/10/28 06:10:42;;;;;;;8.02;2.83;;;17.10;61.60;;;;;;5095986;28;20778;-62
2023/10/28 06:13:09;;;;;;;11.38;2.60;;;17.20;61.60;;;;;;5095798;28;20196;-59
2023/10/28 06:15:38;;;;;;;8.65;2.20;;;17.20;61.70;;;;;;5095807;28;20220;-62
2023/10/28 06:18:05;;;;;;;9.95;2.20;;;17.20;61.70;;;;;;5095677;28;20208;-61
2023/10/28 06:20:32;;;;;;;7.13;2.15;;;17.20;61.60;;;;;;5095790;28;20217;-63
2023/10/28 06:22:59;;;;;;;8.82;2.42;;;17.10;61.60;;;;;;5095766;28;20209;-62
2023/10/28 06:25:28;;;;;;;11.18;2.85;;;17.20;61.70;;;;;;5095757;28;20233;-62
2023/10/28 06:27:55;;;;;;;5.82;1.92;;;17.20;61.60;;;;;;5095464;28;20548;-59
2023/10/28 06:30:22;;;;;;;10.63;2.63;;;17.20;62.40;;;;;;5095398;28;20304;-60
2023/10/28 06:32:50;;;;;;;8.93;2.17;;;17.20;61.70;;;;;;5095338;28;20536;-61
2023/10/28 06:35:17;;;;;;;12.38;3.33;;;17.20;61.60;;;;;;5095228;28;20232;-61
2023/10/28 06:37:44;;;;;;;11.85;3.08;;;17.10;61.50;;;;;;5095309;28;20648;-61
2023/10/28 06:40:11;;;;;;;7.13;2.25;;;17.20;61.60;;;;;;5095595;28;20224;-61
2023/10/28 06:42:38;;;;;;;11.65;2.25;;;17.10;61.50;;;;;;5094873;28;20222;-61
2023/10/28 06:45:06;;;;;;;12.02;2.83;;;17.10;61.50;;;;;;5095397;28;20254;-62
2023/10/28 06:47:34;;;;;;;8.38;2.30;;;17.10;61.50;;;;;;5095048;28;20186;-62
2023/10/28 06:50:06;;;;;;;10.23;2.50;;;17.10;61.50;;;;;;5095035;28;20616;-61
2023/10/28 06:52:33;;;;;;;10.35;2.92;;;17.20;61.50;;;;;;5095311;28;20265;-62
2023/10/28 06:55:00;;;;;;;10.57;2.80;;;17.10;61.50;;;;;;5094828;28;20705;-61
2023/10/28 06:57:30;;;;;;;12.40;2.55;;;17.20;61.50;;;;;;5094729;28;20293;-61
2023/10/28 06:59:57;;;;;;;12.43;2.60;;;17.10;61.50;;;;;;5095107;28;20252;-59
2023/10/28 07:02:24;;;;;;;10.65;2.53;;;17.10;61.50;;;;;;5095166;28;20182;-61
2023/10/28 07:04:51;;;;;;;8.45;2.60;;;17.10;61.50;;;;;;5094368;28;20190;-62
2023/10/28 07:07:19;;;;;;;8.25;1.95;;;17.10;62.30;;;;;;5094900;28;20244;-62
2023/10/28 07:09:47;;;;;;;11.55;2.33;;;17.10;61.50;;;;;;5094961;28;20183;-58
2023/10/28 07:12:14;;;;;;;9.38;2.70;;;17.10;61.40;;;;;;5094603;28;20190;-62
2023/10/28 07:14:40;;;;;;;10.30;2.30;;;17.10;61.50;;;;;;5094854;28;20192;-62
2023/10/28 07:17:11;;;;;;;12.07;2.88;;;17.10;61.50;;;;;;5094407;28;20239;-61
2023/10/28 07:19:38;;;;;;;8.90;2.55;;;17.10;61.40;;;;;;5094097;28;20706;-60
2023/10/28 07:22:05;;;;;;;10.52;2.35;;;17.20;61.50;;;;;;5094507;28;20690;-61
2023/10/28 07:24:34;;;;;;;8.88;2.53;;;17.10;61.50;;;;;;5094691;28;20193;-61
2023/10/28 07:27:02;;;;;;;9.43;2.22;;;17.10;62.30;;;;;;5093831;28;20220;-63
2023/10/28 07:29:29;;;;;;;13.23;2.88;;;17.10;61.50;;;;;;5094254;28;20197;-60
2023/10/28 07:31:57;;;;;;;5.95;2.35;;;17.10;61.50;;;;;;5094798;28;20210;-60
2023/10/28 07:34:24;;;;;;;11.07;2.90;;;17.10;61.40;;;;;;5093866;28;20755;-58
2023/10/28 07:36:52;;;;;;;8.45;2.42;;;17.10;61.50;;;;;;5094758;28;20222;-61
2023/10/28 07:39:18;;;;;;;11.27;2.85;;;17.10;61.50;;;;;;5094065;28;20595;-60
2023/10/28 07:41:47;;;;;;;10.65;2.50;;;17.10;61.50;;;;;;5093810;28;20271;-62
2023/10/28 07:44:14;;;;;;;9.43;2.60;;;17.10;61.90;;;;;;5094384;28;20218;-61
2023/10/28 07:46:41;;;;;;;10.77;3.10;;;17.10;61.50;;;;;;5094405;28;20236;-60
2023/10/28 07:49:08;;;;;;;7.50;2.30;;;17.10;61.50;;;;;;5094041;28;20190;-61
2023/10/28 07:51:35;;;;;;;8.80;2.67;;;17.10;61.50;;;;;;5094066;28;20218;-61
2023/10/28 07:54:02;;;;;;;8.82;2.88;;;17.10;61.50;;;;;;5094191;28;20205;-61
2023/10/28 07:56:31;;;;;;;10.07;2.63;;;17.10;61.50;;;;;;5093835;28;20301;-61
2023/10/28 07:59:01;;;;;;;12.50;2.88;;;17.10;61.50;;;;;;5093542;28;20663;-60
2023/10/28 08:01:29;;;;;;;11.25;3.25;;;17.10;61.50;;;;;;5093910;28;20224;-63
2023/10/28 08:03:56;;;;;;;10.13;3.00;;;17.10;61.50;;;;;;5093589;28;20193;-60
2023/10/28 08:06:24;;;;;;;8.27;2.70;;;17.10;61.50;;;;;;5093951;28;20226;-61
2023/10/28 08:08:53;;;;;;;8.82;2.70;;;17.10;61.50;;;;;;5093220;28;20186;-61
2023/10/28 08:11:21;;;;;;;11.25;3.20;;;17.10;61.50;;;;;;5093559;28;20214;-63
2023/10/28 08:13:49;;;;;;;10.98;2.75;;;17.10;61.50;;;;;;5093320;28;20251;-58
2023/10/28 08:16:19;;;;;;;11.10;2.45;;;17.10;61.50;;;;;;5092841;28;20651;-59
2023/10/28 08:18:46;;;;;;;12.18;2.63;;;17.10;61.50;;;;;;5093217;28;20190;-59
2023/10/28 08:21:14;;;;;;;10.65;2.65;;;17.10;61.50;;;;;;5093721;28;20217;-60
2023/10/28 08:23:41;;;;;;;11.57;2.97;;;17.10;61.50;;;;;;5093612;28;20186;-59
2023/10/28 08:26:10;;;;;;;10.15;2.78;;;17.10;61.50;;;;;;5092887;28;20240;-62
2023/10/28 08:28:37;;;;;;;12.15;2.80;;;17.10;61.50;;;;;;5093409;28;20182;-61
2023/10/28 08:31:07;;;;;;;10.93;2.53;;;17.10;61.50;;;;;;5093236;28;20809;-61
2023/10/28 08:33:36;;;;;;;7.93;2.50;;;17.10;61.50;;;;;;5093003;28;20190;-58
2023/10/28 08:36:04;;;;;;;12.82;2.67;;;17.10;61.50;;;;;;5093415;28;20300;-59
2023/10/28 08:38:31;;;;;;;12.10;3.33;;;17.10;61.50;;;;;;5093160;28;20230;-62
2023/10/28 08:41:00;;;;;;;11.25;3.08;;;17.10;61.50;;;;;;5092972;28;20308;-62
2023/10/28 08:43:27;;;;;;;8.48;2.50;;;17.10;61.50;;;;;;5093015;28;20196;-59
2023/10/28 08:45:55;;;;;;;8.93;2.60;;;17.10;61.50;;;;;;5093049;28;20214;-61
2023/10/28 08:48:23;;;;;;;10.40;3.00;;;17.10;61.50;;;;;;5092808;28;20191;-62
2023/10/28 08:50:55;;;;;;;9.38;2.67;;;17.10;61.50;;;;;;5093018;28;20407;-60
2023/10/28 08:53:22;;;;;;;11.98;2.97;;;17.10;61.50;;;;;;5092699;28;20281;-59
2023/10/28 08:55:50;;;;;;;11.18;2.95;;;17.10;61.50;;;;;;5092632;28;20260;-59
2023/10/28 08:58:20;;;;;;;7.32;2.38;;;17.10;61.50;;;;;;5092979;28;20240;-62
2023/10/28 09:00:47;;;;;;;6.82;2.15;;;17.10;61.50;;;;;;5092856;28;20300;-61
2023/10/28 09:03:15;;;;;;;9.60;3.17;;;17.10;61.50;;;;;;5092536;28;20193;-62
2023/10/28 09:05:42;;;;;;;11.23;2.70;;;17.10;61.60;;;;;;5092645;28;20214;-63
2023/10/28 09:08:11;;;;;;;7.38;2.60;;;17.10;61.60;;;;;;5092445;28;20225;-61
2023/10/28 09:10:41;;;;;;;7.95;2.60;;;17.10;61.60;;;;;;5092413;28;20304;-60
2023/10/28 09:13:08;;;;;;;12.48;2.65;;;17.10;61.60;;;;;;5092459;28;20756;-60
2023/10/28 09:15:35;;;;;;;9.43;2.50;;;17.10;61.60;;;;;;5092350;28;20600;-60
2023/10/28 09:18:02;;;;;;;9.18;2.88;;;17.10;61.60;;;;;;5092208;28;20272;-61
2023/10/28 09:20:29;;;;;;;8.80;2.78;;;17.10;61.60;;;;;;5091819;28;20300;-61
2023/10/28 09:22:56;;;;;;;9.27;2.40;;;17.10;61.60;;;;;;5092671;28;20280;-61
2023/10/28 09:25:25;;;;;;;9.15;2.78;;;17.10;61.60;;;;;;5092183;28;20209;-61
2023/10/28 09:27:52;;;;;;;8.80;2.45;;;17.10;61.60;;;;;;5092468;28;20296;-63
2023/10/28 09:30:19;;;;;;;9.50;2.88;;;17.10;61.70;;;;;;5092136;28;20678;-61
2023/10/28 09:32:46;;;;;;;9.73;2.45;;;17.10;62.50;;;;;;5091744;28;20548;-59
2023/10/28 09:35:13;;;;;;;7.82;2.45;;;17.10;61.70;;;;;;5092225;28;20673;-61
2023/10/28 09:37:41;;;;;;;9.75;2.33;;;17.10;61.70;;;;;;5092126;28;20301;-58
2023/10/28 09:40:12;;;;;;;13.38;3.03;;;17.10;61.80;;;;;;5091823;28;20660;-61
2023/10/28 09:42:43;;;;;;;9.13;2.50;;;17.10;61.80;;;;;;5092145;28;20642;-62
2023/10/28 09:45:11;;;;;;;8.40;3.20;;;17.10;61.80;;;;;;5092008;28;20643;-61
2023/10/28 09:47:49;;;;;;;10.48;2.83;;;17.10;61.80;;;;;;5091867;28;20570;-62
2023/10/28 09:50:17;;;;;;;9.45;2.40;;;17.10;61.80;;;;;;5092015;28;20674;-63
2023/10/28 09:52:45;;;;;;;10.40;2.58;;;17.10;61.80;;;;;;5092306;28;20229;-61
2023/10/28 09:55:15;;;;;;;10.82;2.65;;;17.10;61.80;;;;;;5091456;28;20656;-61
2023/10/28 09:57:44;;;;;;;8.50;2.13;;;17.10;61.80;;;;;;5091980;28;20277;-63
2023/10/28 10:00:17;;;;;;;8.57;2.40;;;17.10;61.90;;;;;;5092344;28;20186;-61
2023/10/28 10:03:08;;;;;;;9.93;2.47;;;17.10;61.90;;;;;;5091728;28;20190;-60
2023/10/28 10:05:39;;;;;;;9.90;2.58;;;17.10;61.90;;;;;;5091785;28;20688;-60
2023/10/28 10:08:16;;;;;;;9.70;3.08;;;17.10;61.90;;;;;;5091428;28;20214;-61
2023/10/28 10:10:46;;;;;;;11.00;2.20;;;17.10;61.90;;;;;;5091817;28;20300;-60
2023/10/28 10:13:16;;;;;;;9.98;2.30;;;17.10;62.00;;;;;;5092171;28;20197;-61
2023/10/28 10:16:00;;;;;;;8.48;2.20;;;17.10;62.00;;;;;;5091334;28;20214;-61
2023/10/28 10:18:41;;;;;;;8.27;2.85;;;17.10;62.00;;;;;;5092115;28;20615;-59
2023/10/28 10:21:10;;;;;;;10.63;2.35;;;17.10;62.10;;;;;;5091785;28;20296;-61
2023/10/28 10:23:44;;;;;;;11.50;2.83;;;17.10;62.10;;;;;;5091618;28;20186;-61
2023/10/28 10:26:26;;;;;;;11.10;2.47;;;17.10;62.10;;;;;;5091987;28;20235;-62
2023/10/28 10:28:58;;;;;;;10.32;2.60;;;17.10;62.10;;;;;;5091684;28;20281;-60
2023/10/28 10:31:29;;;;;;;7.95;2.33;;;17.10;62.10;;;;;;5093685;28;20696;-60
2023/10/28 10:34:05;;;;;;;7.20;2.33;;;17.10;62.20;;;;;;5095725;28;20188;-60
2023/10/28 10:36:35;;;;;;;8.10;2.00;;;17.10;62.20;;;;;;5095651;28;20226;-61
2023/10/28 10:39:11;;;;;;;8.23;2.58;;;17.10;62.20;;;;;;5095110;28;20244;-60
2023/10/28 10:41:40;;;;;;;8.13;2.47;;;17.10;62.30;;;;;;5095626;28;20213;-62
2023/10/28 10:44:24;;;;;;;7.45;2.15;;;17.10;62.30;;;;;;5095228;28;20639;-60
2023/10/28 10:46:51;;;;;;;9.43;2.33;;;17.10;62.30;;;;;;5095225;28;20237;-63
2023/10/28 10:49:18;;;;;;;8.52;2.15;;;17.10;62.30;;;;;;5095503;28;20270;-62
2023/10/28 10:51:46;;;;;;;11.35;3.08;;;17.10;62.30;;;;;;5095541;28;20225;-61
2023/10/28 10:54:13;;;;;;;6.75;2.40;;;17.10;62.30;;;;;;5094979;28;20239;-61
2023/10/28 10:56:40;;;;;;;8.55;2.40;;;17.10;62.30;;;;;;5095360;28;20217;-59
2023/10/28 10:59:06;;;;;;;10.38;2.70;;;17.10;62.40;;;;;;5095098;28;20183;-61
2023/10/28 11:01:35;;;;;;;9.20;2.38;;;17.10;62.40;;;;;;5094889;28;20214;-61
2023/10/28 11:04:03;;;;;;;11.40;2.15;;;17.10;62.40;;;;;;5094913;28;20197;-62
2023/10/28 11:06:30;;;;;;;8.70;2.00;;;17.10;62.40;;;;;;5095107;28;20226;-61
2023/10/28 11:08:56;;;;;;;5.60;1.83;;;17.10;62.40;;;;;;5094642;28;20214;-59
2023/10/28 11:11:25;;;;;;;6.55;2.38;;;17.10;62.40;;;;;;5095028;28;20221;-62
2023/10/28 11:13:52;;;;;;;8.52;2.28;;;17.10;62.40;;;;;;5094938;28;20289;-61
2023/10/28 11:16:22;;;;;;;6.00;1.88;;;17.10;62.50;;;;;;5094520;28;20222;-62
2023/10/28 11:18:50;;;;;;;4.93;2.03;;;17.10;62.50;;;;;;5094639;28;20277;-62
2023/10/28 11:21:18;;;;;;;8.63;2.25;;;17.10;62.50;;;;;;5094944;28;20292;-63
2023/10/28 11:23:46;;;;;;;10.02;2.55;;;17.10;62.50;;;;;;5094452;28;20186;-62
2023/10/28 11:26:19;;;;;;;7.57;2.22;;;17.10;62.60;;;;;;5094725;28;20283;-61
2023/10/28 11:28:46;;;;;;;9.00;2.42;;;17.10;62.60;;;;;;5094184;28;20709;-60
2023/10/28 11:31:13;;;;;;;5.22;1.80;;;17.10;62.70;;;;;;5094297;28;20256;-62
2023/10/28 11:33:45;;;;;;;6.70;2.33;;;17.10;62.70;;;;;;5094534;28;20182;-61
2023/10/28 11:36:13;;;;;;;8.50;1.95;;;17.10;62.70;;;;;;5094169;28;20214;-61
2023/10/28 11:38:42;;;;;;;9.25;2.53;;;17.10;62.70;;;;;;5093972;28;20243;-59
2023/10/28 11:41:09;;;;;;;6.43;2.70;;;17.10;62.70;;;;;;5094450;28;20246;-61
2023/10/28 11:43:37;;;;;;;8.50;1.85;;;17.20;63.00;;;;;;5093410;28;20218;-61
2023/10/28 11:46:04;;;;;;;7.53;2.00;;;17.10;62.90;;;;;;5093954;28;20583;-57
2023/10/28 11:48:33;;;;;;;8.45;2.00;;;17.10;62.80;;;;;;5093814;28;20253;-62
2023/10/28 11:51:01;;;;;;;7.65;2.17;;;17.10;62.90;;;;;;5094238;28;20210;-60
2023/10/28 11:53:30;;;;;;;7.60;1.98;;;17.10;62.90;;;;;;5093545;28;20656;-61
2023/10/28 11:55:57;;;;;;;6.05;2.08;;;17.10;62.90;;;;;;5094086;28;20218;-62
2023/10/28 11:58:25;;;;;;;5.97;2.00;;;17.10;63.00;;;;;;5094103;28;20182;-62
2023/10/28 12:00:55;;;;;;;5.85;2.38;;;17.20;63.00;;;;;;5093607;28;20249;-60
2023/10/28 12:03:22;;;;;;;5.72;1.90;;;17.10;62.90;;;;;;5093962;28;20186;-61
2023/10/28 12:05:49;;;;;;;6.80;1.90;;;17.10;62.90;;;;;;5093524;28;20739;-59
2023/10/28 12:08:16;;;;;;;6.30;1.90;;;17.10;62.90;;;;;;5093493;28;20305;-62
2023/10/28 12:10:44;;;;;;;8.40;2.35;;;17.10;63.00;;;;;;5093507;28;20725;-62
2023/10/28 12:13:11;;;;;;;6.47;1.98;;;17.20;63.00;;;;;;5093820;28;20182;-59
2023/10/28 12:15:39;;;;;;;6.50;1.85;;;17.20;63.00;;;;;;5093053;28;20235;-63
2023/10/28 12:18:07;;;;;;;5.05;1.85;;;17.10;62.90;;;;;;5093386;28;20595;-64
2023/10/28 12:20:34;;;;;;;6.85;2.00;;;17.10;63.00;;;;;;5093608;28;20204;-61
2023/10/28 12:23:02;;;;;;;5.45;1.80;;;17.10;63.00;;;;;;5093218;28;20190;-63
2023/10/28 12:25:30;;;;;;;8.82;1.95;;;17.10;62.90;;;;;;5093521;28;20221;-61
2023/10/28 12:27:58;;;;;;;5.45;1.73;;;17.10;62.90;;;;;;5093475;28;20317;-60
2023/10/28 12:30:25;;;;;;;4.70;1.80;;;17.20;63.00;;;;;;5093271;28;20241;-61
2023/10/28 12:32:52;;;;;;;6.72;1.70;;;17.20;63.00;;;;;;5093179;28;20296;-61
2023/10/28 12:35:19;;;;;;;6.18;1.73;;;17.20;63.00;;;;;;5093035;28;20193;-59
2023/10/28 12:37:46;;;;;;;5.55;1.73;;;17.10;63.00;;;;;;5092896;28;20347;-60
2023/10/28 12:40:14;;;;;;;4.88;1.55;;;17.10;62.90;;;;;;5093143;28;20879;-61
2023/10/28 12:42:41;;;;;;;5.32;1.80;;;17.20;63.00;;;;;;5093300;28;20300;-60
2023/10/28 12:45:11;;;;;;;5.32;1.60;;;17.20;63.10;;;;;;5092874;28;20193;-61
2023/10/28 12:47:38;;;;;;;4.63;1.55;;;17.20;63.00;;;;;;5092883;28;20232;-60
2023/10/28 12:50:08;;;;;;;6.32;1.77;;;17.20;63.00;;;;;;5093131;28;20227;-61